createdAt,value
2022-10-12T00:00:33.745Z,99258.22
2022-10-12T00:03:40.710Z,99259.03
2022-10-12T00:06:46.759Z,99248.69
2022-10-12T00:09:54.150Z,99257.44
2022-10-12T00:12:59.711Z,99251.44
2022-10-12T00:16:12.306Z,99254.94
2022-10-12T00:19:17.923Z,99259.34
2022-10-12T00:22:24.352Z,99253.25
2022-10-12T00:25:30.298Z,99260.28
2022-10-12T00:28:38.356Z,99253.38
2022-10-12T00:31:46.773Z,99259.47
2022-10-12T00:34:53.185Z,99259.53
2022-10-12T00:37:59.379Z,99257.00
2022-10-12T00:41:06.828Z,99254.44
2022-10-12T00:44:42.284Z,99257.06
2022-10-12T00:47:54.923Z,99263.25
2022-10-12T00:51:04.067Z,99258.09
2022-10-12T00:54:15.358Z,99262.44
2022-10-12T00:57:22.842Z,99261.72
2022-10-12T01:00:29.796Z,99265.25
2022-10-12T01:03:38.940Z,99258.34
2022-10-12T01:06:45.471Z,99259.31
2022-10-12T01:09:51.841Z,99250.69
2022-10-12T01:12:58.310Z,99252.47
2022-10-12T01:16:11.337Z,99252.53
2022-10-12T01:19:40.124Z,99254.28
2022-10-12T01:22:52.137Z,99255.16
2022-10-12T01:26:11.609Z,99251.72
2022-10-12T01:29:34.616Z,99259.56
2022-10-12T01:33:03.337Z,99259.69
2022-10-12T01:36:16.702Z,99250.25
2022-10-12T01:39:30.803Z,99261.53
2022-10-12T01:42:41.072Z,99259.81
2022-10-12T01:45:47.503Z,99260.66
2022-10-12T01:49:00.167Z,99254.66
2022-10-12T01:52:30.358Z,99256.44
2022-10-12T01:55:52.579Z,99260.84
2022-10-12T01:59:08.591Z,99254.00
2022-10-12T02:02:22.495Z,99262.69
2022-10-12T02:05:41.478Z,99265.31
2022-10-12T02:08:53.229Z,99259.28
2022-10-12T02:12:06.411Z,99260.16
2022-10-12T02:15:14.755Z,99257.59
2022-10-12T02:18:23.410Z,99260.22
2022-10-12T02:21:34.322Z,99257.69
2022-10-12T02:24:44.155Z,99256.94
2022-10-12T02:27:55.080Z,99265.66
2022-10-12T02:31:10.185Z,99259.66
2022-10-12T02:34:19.552Z,99262.34
2022-10-12T02:37:38.154Z,99266.69
2022-10-12T02:40:49.801Z,99264.16
2022-10-12T02:44:00.412Z,99265.88
2022-10-12T02:47:11.366Z,99275.47
2022-10-12T02:50:21.624Z,99266.03
2022-10-12T02:53:33.227Z,99270.38
2022-10-12T02:56:47.222Z,99276.44
2022-10-12T02:59:52.886Z,99273.03
2022-10-12T03:02:59.309Z,99271.38
2022-10-12T03:06:07.457Z,99274.88
2022-10-12T03:09:16.993Z,99266.22
2022-10-12T03:12:22.594Z,99268.88
2022-10-12T03:15:29.061Z,99264.59
2022-10-12T03:18:35.244Z,99259.38
2022-10-12T03:21:41.822Z,99255.88
2022-10-12T03:24:50.507Z,99258.41
2022-10-12T03:27:56.962Z,99252.41
2022-10-12T03:31:03.269Z,99255.97
2022-10-12T03:34:10.041Z,99254.19
2022-10-12T03:37:15.656Z,99257.72
2022-10-12T03:40:25.190Z,99264.69
2022-10-12T03:43:30.865Z,99271.69
2022-10-12T03:46:37.537Z,99264.75
2022-10-12T03:49:43.122Z,99264.75
2022-10-12T03:52:49.593Z,99274.31
2022-10-12T03:55:57.939Z,99264.84
2022-10-12T03:59:06.359Z,99268.38
2022-10-12T04:02:16.656Z,99278.81
2022-10-12T04:05:23.854Z,99264.97
2022-10-12T04:08:30.817Z,99264.97
2022-10-12T04:11:40.060Z,99265.94
2022-10-12T04:14:45.672Z,99263.38
2022-10-12T04:17:53.028Z,99272.00
2022-10-12T04:20:58.713Z,99278.97
2022-10-12T04:24:07.228Z,99273.78
2022-10-12T04:27:15.643Z,99268.56
2022-10-12T04:30:22.143Z,99275.66
2022-10-12T04:33:27.897Z,99275.72
2022-10-12T04:36:34.407Z,99274.84
2022-10-12T04:39:40.247Z,99274.94
2022-10-12T04:42:49.852Z,99273.28
2022-10-12T04:45:59.464Z,99270.75
2022-10-12T04:49:06.905Z,99273.41
2022-10-12T04:52:12.802Z,99271.69
2022-10-12T04:55:19.759Z,99275.88
2022-10-12T04:58:28.146Z,99279.22
2022-10-12T05:01:35.055Z,99293.06
2022-10-12T05:04:40.713Z,99285.19
2022-10-12T05:07:47.446Z,99285.91
2022-10-12T05:10:53.640Z,99284.09
2022-10-12T05:14:03.337Z,99291.75
2022-10-12T05:17:08.999Z,99289.06
2022-10-12T05:20:15.504Z,99293.28
2022-10-12T05:23:21.611Z,99291.47
2022-10-12T05:26:28.816Z,99295.66
2022-10-12T05:29:37.352Z,99295.53
2022-10-12T05:32:44.637Z,99296.31
2022-10-12T05:35:56.271Z,99297.09
2022-10-12T05:39:03.401Z,99299.66
2022-10-12T05:42:09.325Z,99303.84
2022-10-12T05:45:18.707Z,99300.22
2022-10-12T05:48:24.338Z,99302.69
2022-10-12T05:51:30.852Z,99304.28
2022-10-12T05:54:36.628Z,99308.50
2022-10-12T05:57:43.162Z,99305.03
2022-10-12T06:00:52.673Z,99298.81
2022-10-12T06:03:59.417Z,99303.09
2022-10-12T06:07:08.367Z,99314.28
2022-10-12T06:10:14.890Z,99302.88
2022-10-12T06:13:21.162Z,99314.03
2022-10-12T06:16:30.670Z,99300.91
2022-10-12T06:19:36.394Z,99310.44
2022-10-12T06:22:42.816Z,99300.84
2022-10-12T06:25:49.320Z,99311.19
2022-10-12T06:28:55.828Z,99309.38
2022-10-12T06:32:04.322Z,99315.34
2022-10-12T06:35:12.106Z,99311.94
2022-10-12T06:38:17.887Z,99310.25
2022-10-12T06:41:24.883Z,99314.59
2022-10-12T06:44:30.616Z,99317.94
2022-10-12T06:47:39.874Z,99319.56
2022-10-12T06:50:45.588Z,99316.84
2022-10-12T06:53:52.115Z,99316.66
2022-10-12T06:56:58.821Z,99320.00
2022-10-12T07:00:07.609Z,99318.16
2022-10-12T07:03:17.886Z,99317.91
2022-10-12T07:06:24.330Z,99315.00
2022-10-12T07:09:30.021Z,99325.16
2022-10-12T07:12:39.236Z,99317.00
2022-10-12T07:15:45.341Z,99315.97
2022-10-12T07:18:54.707Z,99317.44
2022-10-12T07:22:00.420Z,99316.44
2022-10-12T07:25:10.844Z,99323.97
2022-10-12T07:28:16.848Z,99316.00
2022-10-12T07:31:23.378Z,99317.38
2022-10-12T07:34:32.753Z,99317.84
2022-10-12T07:37:41.974Z,99322.78
2022-10-12T07:40:49.115Z,99318.13
2022-10-12T07:43:58.487Z,99316.94
2022-10-12T07:47:04.611Z,99315.84
2022-10-12T07:50:14.807Z,99318.19
2022-10-12T07:53:20.515Z,99325.78
2022-10-12T07:56:27.029Z,99313.66
2022-10-12T07:59:32.994Z,99322.22
2022-10-12T08:02:39.614Z,99320.22
2022-10-12T08:05:50.837Z,99322.66
2022-10-12T08:08:58.022Z,99315.47
2022-10-12T08:12:03.988Z,99318.78
2022-10-12T08:15:11.702Z,99314.97
2022-10-12T08:18:17.339Z,99312.94
2022-10-12T08:21:26.577Z,99309.16
2022-10-12T08:24:32.486Z,99314.13
2022-10-12T08:27:39.689Z,99314.63
2022-10-12T08:30:45.604Z,99309.09
2022-10-12T08:33:52.038Z,99316.59
2022-10-12T08:37:01.171Z,99316.28
2022-10-12T08:40:10.202Z,99317.66
2022-10-12T08:43:23.274Z,99314.59
2022-10-12T08:46:31.442Z,99310.06
2022-10-12T08:49:40.153Z,99320.19
2022-10-12T08:52:54.364Z,99319.72
2022-10-12T08:56:03.311Z,99319.38
2022-10-12T08:59:15.104Z,99317.22
2022-10-12T09:02:42.099Z,99320.22
2022-10-12T09:05:56.367Z,99319.94
2022-10-12T09:09:16.818Z,99314.38
2022-10-12T09:12:41.600Z,99300.84
2022-10-12T09:15:54.578Z,99304.88
2022-10-12T09:19:06.350Z,99302.91
2022-10-12T09:22:21.358Z,99300.81
2022-10-12T09:25:31.961Z,99306.59
2022-10-12T09:28:42.213Z,99296.66
2022-10-12T09:32:06.227Z,99292.78
2022-10-12T09:35:16.216Z,99288.13
2022-10-12T09:38:24.628Z,99287.84
2022-10-12T09:41:37.316Z,99286.56
2022-10-12T09:44:47.278Z,99290.63
2022-10-12T09:48:16.504Z,99298.97
2022-10-12T09:51:23.093Z,99301.25
2022-10-12T09:54:31.071Z,99294.72
2022-10-12T09:57:46.931Z,99297.06
2022-10-12T10:01:16.619Z,99291.53
2022-10-12T10:04:27.472Z,99293.91
2022-10-12T10:07:35.297Z,99290.88
2022-10-12T10:10:51.543Z,99292.16
2022-10-12T10:14:03.348Z,99284.59
2022-10-12T10:17:19.209Z,99286.69
2022-10-12T10:20:32.427Z,99288.44
2022-10-12T10:23:42.731Z,99281.50
2022-10-12T10:26:56.776Z,99293.56
2022-10-12T10:30:34.985Z,99283.63
2022-10-12T10:33:43.269Z,99288.78
2022-10-12T10:36:52.020Z,99289.72
2022-10-12T10:40:00.081Z,99287.25
2022-10-12T10:43:19.760Z,99277.69
2022-10-12T10:46:31.292Z,99282.88
2022-10-12T10:49:43.321Z,99279.00
2022-10-12T10:52:57.857Z,99273.25
2022-10-12T10:56:08.729Z,99281.59
2022-10-12T10:59:19.919Z,99271.16
2022-10-12T11:02:41.356Z,99265.81
2022-10-12T11:05:51.400Z,99265.09
2022-10-12T11:09:06.884Z,99262.53
2022-10-12T11:12:17.556Z,99261.06
2022-10-12T11:15:28.912Z,99263.19
2022-10-12T11:18:41.632Z,99250.59
2022-10-12T11:21:53.516Z,99252.41
2022-10-12T11:25:12.148Z,99249.81
2022-10-12T11:28:19.562Z,99251.34
2022-10-12T11:31:30.081Z,99253.56
2022-10-12T11:34:46.551Z,99256.81
2022-10-12T11:37:56.993Z,99253.03
2022-10-12T11:44:44.107Z,99251.63
2022-10-12T11:47:53.286Z,99246.66
2022-10-12T11:51:04.377Z,99245.47
2022-10-12T11:54:23.819Z,99242.22
2022-10-12T11:57:34.305Z,99238.97
2022-10-12T12:00:51.708Z,99238.81
2022-10-12T12:04:42.804Z,99236.81
2022-10-12T12:07:56.945Z,99231.38
2022-10-12T12:11:21.714Z,99236.44
2022-10-12T12:14:49.143Z,99230.09
2022-10-12T12:18:15.926Z,99220.00
2022-10-12T12:21:22.455Z,99217.13
2022-10-12T12:24:30.886Z,99223.84
2022-10-12T12:27:40.786Z,99215.94
2022-10-12T12:30:58.409Z,99213.41
2022-10-12T12:34:10.159Z,99215.78
2022-10-12T12:37:16.023Z,99214.34
2022-10-12T12:40:28.331Z,99204.09
2022-10-12T12:43:54.253Z,99206.94
2022-10-12T12:50:47.629Z,99203.38
2022-10-12T12:53:59.301Z,99195.72
2022-10-12T12:57:38.711Z,99201.50
2022-10-12T13:00:55.299Z,99203.06
2022-10-12T13:04:23.812Z,99195.75
2022-10-12T13:08:07.122Z,99189.78
2022-10-12T13:11:53.895Z,99191.63
2022-10-12T13:15:30.132Z,99186.53
2022-10-12T13:18:51.625Z,99189.78
2022-10-12T13:21:59.710Z,99192.53
2022-10-12T13:25:10.215Z,99187.25
2022-10-12T13:28:22.092Z,99181.81
2022-10-12T13:31:35.637Z,99196.97
2022-10-12T13:34:50.025Z,99185.50
2022-10-12T13:38:06.728Z,99182.00
2022-10-12T13:41:16.342Z,99181.97
2022-10-12T13:44:26.490Z,99178.53
2022-10-12T13:47:35.430Z,99177.00
2022-10-12T13:50:53.932Z,99174.97
2022-10-12T13:54:00.846Z,99175.59
2022-10-12T13:57:17.185Z,99175.25
2022-10-12T14:00:26.201Z,99177.72
2022-10-12T14:03:40.340Z,99173.81
2022-10-12T14:06:58.528Z,99172.34
2022-10-12T14:10:08.839Z,99174.31
2022-10-12T14:13:17.995Z,99169.13
2022-10-12T14:16:24.184Z,99170.75
2022-10-12T14:19:45.164Z,99169.03
2022-10-12T14:22:53.696Z,99163.00
2022-10-12T14:26:00.594Z,99162.94
2022-10-12T14:29:30.243Z,99157.72
2022-10-12T14:32:45.199Z,99164.28
2022-10-12T14:35:52.171Z,99167.00
2022-10-12T14:39:16.243Z,99154.50
2022-10-12T14:42:23.810Z,99151.19
2022-10-12T14:45:30.316Z,99152.16
2022-10-12T14:48:35.990Z,99147.09
2022-10-12T14:51:42.463Z,99147.09
2022-10-12T14:54:53.618Z,99143.69
2022-10-12T14:58:00.302Z,99140.28
2022-10-12T15:01:08.164Z,99144.78
2022-10-12T15:04:16.316Z,99138.50
2022-10-12T15:07:24.799Z,99143.44
2022-10-12T15:10:34.071Z,99146.59
2022-10-12T15:13:39.680Z,99146.44
2022-10-12T15:16:46.193Z,99148.16
2022-10-12T15:19:53.610Z,99145.41
2022-10-12T15:23:00.583Z,99151.88
2022-10-12T15:26:15.000Z,99154.75
2022-10-12T15:29:21.685Z,99153.41
2022-10-12T15:32:27.297Z,99145.88
2022-10-12T15:35:35.988Z,99153.19
2022-10-12T15:38:41.568Z,99151.84
2022-10-12T15:41:51.005Z,99155.75
2022-10-12T15:44:56.579Z,99157.94
2022-10-12T15:48:06.089Z,99160.31
2022-10-12T15:51:19.983Z,99160.88
2022-10-12T15:54:26.533Z,99155.41
2022-10-12T15:57:35.160Z,99157.00
2022-10-12T16:00:41.783Z,99165.53
2022-10-12T16:03:48.399Z,99165.22
2022-10-12T16:06:55.004Z,99168.38
2022-10-12T16:10:00.601Z,99167.06
2022-10-12T16:13:14.266Z,99168.44
2022-10-12T16:16:20.808Z,99167.19
2022-10-12T16:19:27.395Z,99171.22
2022-10-12T16:22:33.297Z,99169.97
2022-10-12T16:25:39.898Z,99167.00
2022-10-12T16:28:48.330Z,99172.72
2022-10-12T16:31:55.112Z,99167.88
2022-10-12T16:35:00.890Z,99167.47
2022-10-12T16:38:09.437Z,99166.13
2022-10-12T16:41:17.063Z,99177.84
2022-10-12T16:44:26.361Z,99174.81
2022-10-12T16:47:32.065Z,99171.72
2022-10-12T16:50:40.942Z,99172.13
2022-10-12T16:53:46.606Z,99178.59
2022-10-12T16:56:53.070Z,99177.22
2022-10-12T17:00:03.281Z,99169.69
2022-10-12T17:03:14.070Z,99163.94
2022-10-12T17:06:19.828Z,99168.63
2022-10-12T17:09:27.698Z,99170.63
2022-10-12T17:12:33.319Z,99177.06
2022-10-12T17:15:45.440Z,99176.41
2022-10-12T17:18:54.496Z,99174.97
2022-10-12T17:22:06.727Z,99169.22
2022-10-12T17:25:12.578Z,99166.84
2022-10-12T17:28:19.150Z,99173.19
2022-10-12T17:31:28.873Z,99176.00
2022-10-12T17:34:37.755Z,99169.34
2022-10-12T17:37:43.968Z,99169.56
2022-10-12T17:40:51.915Z,99169.81
2022-10-12T17:43:57.878Z,99170.09
2022-10-12T17:47:07.901Z,99173.72
2022-10-12T17:50:13.476Z,99178.31
2022-10-12T17:53:20.031Z,99169.81
2022-10-12T17:56:26.506Z,99176.97
2022-10-12T17:59:33.034Z,99167.56
2022-10-12T18:02:41.577Z,99178.16
2022-10-12T18:05:48.288Z,99171.38
2022-10-12T18:08:56.596Z,99168.09
2022-10-12T18:12:03.224Z,99166.53
2022-10-12T18:15:10.315Z,99168.38
2022-10-12T18:18:19.780Z,99162.31
2022-10-12T18:21:27.755Z,99165.91
2022-10-12T18:24:34.236Z,99167.03
2022-10-12T18:27:40.113Z,99163.84
2022-10-12T18:30:50.735Z,99167.44
2022-10-12T18:33:59.984Z,99163.28
2022-10-12T18:37:09.056Z,99158.19
2022-10-12T18:40:15.118Z,99171.56
2022-10-12T18:43:21.680Z,99166.59
2022-10-12T18:46:29.624Z,99172.03
2022-10-12T18:49:38.838Z,99172.16
2022-10-12T18:52:44.391Z,99175.91
2022-10-12T18:55:50.877Z,99168.16
2022-10-12T18:58:57.065Z,99169.09
2022-10-12T19:02:03.509Z,99164.88
2022-10-12T19:05:12.526Z,99165.91
2022-10-12T19:08:19.012Z,99164.28
2022-10-12T19:11:26.535Z,99162.72
2022-10-12T19:14:33.186Z,99167.19
2022-10-12T19:17:38.856Z,99175.19
2022-10-12T19:20:48.149Z,99175.31
2022-10-12T19:23:54.355Z,99179.72
2022-10-12T19:27:00.810Z,99180.63
2022-10-12T19:30:09.310Z,99180.72
2022-10-12T19:33:15.797Z,99179.16
2022-10-12T19:36:24.479Z,99178.34
2022-10-12T19:39:32.270Z,99175.03
2022-10-12T19:42:37.883Z,99174.34
2022-10-12T19:45:45.186Z,99178.81
2022-10-12T19:48:52.922Z,99181.56
2022-10-12T19:52:03.654Z,99177.31
2022-10-12T19:55:10.533Z,99175.69
2022-10-12T19:58:16.993Z,99171.41
2022-10-12T20:01:25.261Z,99170.63
2022-10-12T20:04:31.724Z,99175.94
2022-10-12T20:07:40.354Z,99172.53
2022-10-12T20:10:47.011Z,99172.69
2022-10-12T20:13:53.380Z,99175.41
2022-10-12T20:17:00.127Z,99180.78
2022-10-12T20:20:09.198Z,99174.72
2022-10-12T20:23:19.188Z,99177.44
2022-10-12T20:26:26.927Z,99178.47
2022-10-12T20:29:33.374Z,99188.09
2022-10-12T20:32:38.987Z,99182.97
2022-10-12T20:35:50.034Z,99184.78
2022-10-12T20:39:00.108Z,99184.03
2022-10-12T20:42:08.463Z,99179.75
2022-10-12T20:45:14.524Z,99174.63
2022-10-12T20:48:21.032Z,99177.31
2022-10-12T20:51:28.366Z,99178.25
2022-10-12T20:54:38.709Z,99181.84
2022-10-12T20:57:44.292Z,99179.34
2022-10-12T21:00:50.800Z,99173.31
2022-10-12T21:03:57.364Z,99173.31
2022-10-12T21:07:03.803Z,99175.19
2022-10-12T21:10:13.077Z,99165.72
2022-10-12T21:13:19.535Z,99164.84
2022-10-12T21:16:25.515Z,99169.34
2022-10-12T21:19:32.089Z,99166.88
2022-10-12T21:22:37.950Z,99169.59
2022-10-12T21:25:47.258Z,99168.75
2022-10-12T21:28:53.698Z,99171.41
2022-10-12T21:32:00.261Z,99164.47
2022-10-12T21:35:08.690Z,99169.81
2022-10-12T21:38:17.676Z,99172.44
2022-10-12T21:41:27.940Z,99169.91
2022-10-12T21:44:34.694Z,99158.59
2022-10-12T21:47:40.286Z,99153.47
2022-10-12T21:50:46.806Z,99152.78
2022-10-12T21:53:53.434Z,99157.34
2022-10-12T21:57:03.819Z,99157.56
2022-10-12T22:00:13.422Z,99154.22
2022-10-12T22:03:20.042Z,99150.88
2022-10-12T22:06:27.395Z,99152.69
2022-10-12T22:09:33.939Z,99152.78
2022-10-12T22:12:42.745Z,99158.09
2022-10-12T22:15:49.233Z,99152.06
2022-10-12T22:18:54.833Z,99149.53
2022-10-12T22:22:06.274Z,99153.06
2022-10-12T22:25:12.127Z,99149.66
2022-10-12T22:28:21.385Z,99147.03
2022-10-12T22:31:27.812Z,99147.03
2022-10-12T22:34:34.470Z,99151.41
2022-10-12T22:37:40.048Z,99142.78
2022-10-12T22:40:46.602Z,99150.66
2022-10-12T22:43:57.557Z,99143.72
2022-10-12T22:47:04.002Z,99145.47
2022-10-12T22:50:10.591Z,99142.06
2022-10-12T22:53:18.513Z,99135.25
2022-10-12T22:56:24.177Z,99132.72
2022-10-12T22:59:33.530Z,99132.81
2022-10-12T23:02:39.446Z,99128.59
2022-10-12T23:05:51.458Z,99122.53
2022-10-12T23:08:57.273Z,99133.91
2022-10-12T23:12:04.163Z,99125.34
2022-10-12T23:15:13.900Z,99124.63
2022-10-12T23:18:20.763Z,99132.44
2022-10-12T23:21:26.705Z,99131.69
2022-10-12T23:24:33.190Z,99118.72
2022-10-12T23:27:40.001Z,99128.34
2022-10-12T23:30:49.203Z,99122.28
2022-10-12T23:33:58.116Z,99131.91
2022-10-12T23:37:06.254Z,99128.50
2022-10-12T23:40:13.433Z,99133.72
2022-10-12T23:43:19.970Z,99137.19
2022-10-12T23:46:28.361Z,99135.59
2022-10-12T23:49:37.120Z,99137.41
2022-10-12T23:52:45.174Z,99135.72
2022-10-12T23:55:51.769Z,99131.44
2022-10-12T23:58:57.444Z,99127.03
